Time;durP1;ratioP1;P1;durP2;ratioP2;P2;SDS_P1;SDS_P2;PMS_P1;PMS_P2;Temp;Humidity;BMP_temperature;BMP_pressure;BME280_temperature;BME280_humidity;BME280_pressure;Samples;Min_cycle;Max_cycle;Signal;HPM_P1;HPM_P2
2022/11/21 00:00:46;;;;;;;24.60;23.60;;;8.60;93.90;;;;;;5026257;28;20030;-76
2022/11/21 00:03:11;;;;;;;25.65;24.65;;;8.60;93.90;;;;;;5026461;28;20105;-76
2022/11/21 00:05:43;;;;;;;22.15;21.25;;;8.60;93.90;;;;;;5029691;28;20427;-76
2022/11/21 00:08:10;;;;;;;22.40;21.50;;;8.60;93.90;;;;;;5031544;28;20029;-76
2022/11/21 00:10:37;;;;;;;23.30;22.40;;;8.70;93.90;;;;;;5013349;28;20468;-75
2022/11/21 00:13:04;;;;;;;27.00;26.00;;;8.70;93.90;;;;;;5029938;28;20377;-75
2022/11/21 00:15:29;;;;;;;25.40;24.40;;;8.70;93.90;;;;;;5029858;28;20032;-75
2022/11/21 00:17:55;;;;;;;27.50;26.40;;;8.70;93.90;;;;;;5030180;28;20029;-75
2022/11/21 00:20:22;;;;;;;27.13;26.08;;;8.70;93.90;;;;;;5031273;28;20037;-75
2022/11/21 00:22:48;;;;;;;28.83;27.73;;;8.70;93.90;;;;;;5031219;28;20116;-75
2022/11/21 00:25:14;;;;;;;28.20;27.10;;;8.70;93.90;;;;;;5029759;28;20054;-75
2022/11/21 00:27:40;;;;;;;27.23;26.20;;;8.70;93.90;;;;;;5029819;28;20033;-76
2022/11/21 00:30:08;;;;;;;31.20;30.00;;;8.70;93.90;;;;;;5031068;28;20025;-75
2022/11/21 00:32:34;;;;;;;30.60;29.40;;;8.80;93.90;;;;;;5029751;28;20025;-75
2022/11/21 00:35:00;;;;;;;32.47;31.27;;;8.70;93.90;;;;;;5013300;28;20033;-75
2022/11/21 00:37:25;;;;;;;32.25;31.05;;;8.80;93.90;;;;;;5013076;28;20030;-75
2022/11/21 00:39:51;;;;;;;29.02;27.92;;;8.80;93.90;;;;;;4996959;28;20052;-75
2022/11/21 00:42:17;;;;;;;33.72;32.42;;;8.80;93.90;;;;;;5029621;28;20116;-75
2022/11/21 00:44:43;;;;;;;32.75;31.55;;;8.80;94.00;;;;;;5013117;28;20026;-75
2022/11/21 00:47:08;;;;;;;33.35;32.05;;;8.80;94.00;;;;;;5012873;28;20575;-75
2022/11/21 00:49:34;;;;;;;34.92;33.63;;;8.80;94.00;;;;;;5029476;28;20053;-75
2022/11/21 00:52:00;;;;;;;37.65;36.25;;;8.90;94.00;;;;;;5012857;28;20029;-75
2022/11/21 00:54:26;;;;;;;39.28;37.78;;;8.90;94.00;;;;;;5012863;28;20033;-75
2022/11/21 00:56:51;;;;;;;39.88;38.38;;;8.90;94.00;;;;;;5012930;28;20130;-76
2022/11/21 00:59:17;;;;;;;39.75;38.25;;;8.90;93.90;;;;;;5029406;28;20029;-75
2022/11/21 01:01:43;;;;;;;43.40;41.80;;;8.90;93.90;;;;;;5012919;28;20108;-75
2022/11/21 01:04:09;;;;;;;46.00;44.30;;;9.00;93.90;;;;;;4996549;28;20034;-75
2022/11/21 01:06:37;;;;;;;42.75;41.15;;;8.90;93.90;;;;;;5029148;28;20060;-75
2022/11/21 01:09:03;;;;;;;46.20;44.50;;;8.90;93.90;;;;;;5030391;28;20087;-75
2022/11/21 01:11:29;;;;;;;44.60;42.90;;;9.00;93.90;;;;;;5029190;28;20036;-76
2022/11/21 01:13:55;;;;;;;47.80;46.00;;;9.00;94.00;;;;;;5030223;28;20420;-76
2022/11/21 01:16:24;;;;;;;48.05;46.25;;;9.00;94.00;;;;;;5030299;28;20090;-76
2022/11/21 01:18:50;;;;;;;48.78;46.97;;;9.00;94.00;;;;;;5028949;28;20459;-76
2022/11/21 01:21:16;;;;;;;50.20;48.30;;;9.10;94.00;;;;;;5028816;28;20033;-75
2022/11/21 01:23:42;;;;;;;51.60;49.70;;;9.10;94.00;;;;;;5028807;28;20378;-76
2022/11/21 01:26:10;;;;;;;;;;;9.20;94.00;;;;;;5029218;28;20037;-76
2022/11/21 01:28:36;;;;;;;52.92;50.92;;;9.20;94.00;;;;;;5028843;28;19951;-75
2022/11/21 01:31:06;;;;;;;55.78;53.70;;;9.30;94.00;;;;;;5028845;28;20131;-75
2022/11/21 01:33:32;;;;;;;56.80;54.70;;;9.30;93.90;;;;;;5028921;28;20397;-75
2022/11/21 01:36:12;;;;;;;58.65;56.45;;;9.30;93.90;;;;;;5012306;28;20116;-75
2022/11/21 01:38:39;;;;;;;60.78;58.47;;;9.30;93.90;;;;;;5028699;28;20496;-75
2022/11/21 01:41:06;;;;;;;60.45;58.25;;;9.30;93.90;;;;;;5028542;28;20030;-75
2022/11/21 01:43:32;;;;;;;61.50;59.20;;;9.30;94.00;;;;;;5028388;28;20048;-75
2022/11/21 01:46:04;;;;;;;63.40;61.00;;;9.30;94.00;;;;;;5028398;28;20529;-75
2022/11/21 01:48:38;;;;;;;61.78;59.47;;;9.30;94.00;;;;;;5029763;28;20036;-75
2022/11/21 01:51:26;;;;;;;64.95;62.55;;;9.30;94.00;;;;;;5028400;28;20025;-75
2022/11/21 01:54:03;;;;;;;63.45;61.05;;;9.50;94.10;;;;;;5029687;28;20106;-76
2022/11/21 01:56:34;;;;;;;63.13;60.72;;;9.50;94.10;;;;;;5028283;28;20493;-76
2022/11/21 01:59:03;;;;;;;67.80;65.30;;;9.50;94.10;;;;;;5029542;28;20063;-76
2022/11/21 02:01:29;;;;;;;66.32;63.83;;;9.60;94.00;;;;;;5028355;28;20029;-76
2022/11/21 02:03:56;;;;;;;62.88;60.58;;;9.60;94.00;;;;;;5028256;28;20036;-76
2022/11/21 02:06:24;;;;;;;65.60;63.13;;;9.60;94.00;;;;;;5027928;28;20359;-76
2022/11/21 02:08:50;;;;;;;68.40;65.85;;;9.50;94.00;;;;;;5029401;28;20044;-76
2022/11/21 02:11:34;;;;;;;68.60;66.05;;;9.50;94.00;;;;;;5011676;28;20030;-76
2022/11/21 02:14:01;;;;;;;69.00;66.40;;;9.60;94.10;;;;;;5027859;28;20033;-76
2022/11/21 02:16:27;;;;;;;68.82;66.22;;;9.50;94.00;;;;;;5028037;28;20060;-76
2022/11/21 02:18:53;;;;;;;66.13;63.63;;;9.50;94.00;;;;;;5027959;28;20597;-76
2022/11/21 02:22:02;;;;;;;64.05;61.65;;;9.50;94.00;;;;;;5027697;28;20128;-76
2022/11/21 02:24:42;;;;;;;58.85;56.65;;;9.50;94.00;;;;;;5026227;28;20088;-76
2022/11/21 02:27:09;;;;;;;58.65;56.45;;;9.50;94.00;;;;;;5026241;28;20103;-76
2022/11/21 02:29:34;;;;;;;58.42;56.22;;;9.50;94.10;;;;;;5018958;28;20127;-76
2022/11/21 02:32:04;;;;;;;54.65;52.65;;;9.50;94.10;;;;;;5011246;28;20056;-76
2022/11/21 02:34:30;;;;;;;34.33;33.03;;;9.50;94.10;;;;;;5027440;28;20118;-76
2022/11/21 02:36:56;;;;;;;25.45;24.45;;;9.60;94.20;;;;;;5027410;28;20029;-76
2022/11/21 02:39:28;;;;;;;32.83;31.60;;;9.60;94.30;;;;;;5011130;28;20433;-76
2022/11/21 02:42:03;;;;;;;29.30;28.20;;;9.80;94.30;;;;;;5027471;28;20029;-76
2022/11/21 02:44:37;;;;;;;29.15;28.05;;;9.90;94.30;;;;;;5027493;28;20029;-76
2022/11/21 02:47:03;;;;;;;30.00;28.90;;;9.90;94.30;;;;;;5027172;28;20029;-76
2022/11/21 02:49:55;;;;;;;24.88;23.88;;;10.00;94.30;;;;;;5011385;28;20398;-76
2022/11/21 02:52:21;;;;;;;27.42;26.33;;;10.10;94.30;;;;;;5028516;28;20114;-76
2022/11/21 02:54:46;;;;;;;26.73;25.73;;;10.20;94.30;;;;;;5028602;28;20557;-76
2022/11/21 02:57:12;;;;;;;28.13;27.02;;;10.20;94.30;;;;;;5010723;28;20052;-76
2022/11/21 02:59:38;;;;;;;31.08;29.88;;;10.30;94.30;;;;;;5010612;28;20080;-76
2022/11/21 03:02:03;;;;;;;30.65;29.45;;;10.30;94.20;;;;;;5028711;28;20377;-76
2022/11/21 03:04:29;;;;;;;31.40;30.20;;;10.30;94.20;;;;;;5028252;28;20036;-76
2022/11/21 03:06:55;;;;;;;32.97;31.77;;;10.30;94.20;;;;;;4994069;28;20040;-76
2022/11/21 03:09:21;;;;;;;33.67;32.38;;;10.30;94.20;;;;;;5028276;28;20492;-76
2022/11/21 03:11:46;;;;;;;36.60;35.20;;;10.30;94.20;;;;;;5026936;28;20029;-76
2022/11/21 03:14:12;;;;;;;37.50;36.10;;;10.30;94.20;;;;;;5010508;28;20518;-76
2022/11/21 03:16:38;;;;;;;38.20;36.80;;;10.30;94.20;;;;;;5027071;28;20048;-76
2022/11/21 03:19:03;;;;;;;40.63;39.13;;;10.30;94.20;;;;;;5027911;28;20029;-76
2022/11/21 03:21:29;;;;;;;44.20;42.60;;;10.30;94.20;;;;;;4993996;28;20124;-76
2022/11/21 03:23:55;;;;;;;44.17;42.58;;;10.20;94.10;;;;;;5026606;28;20050;-76
2022/11/21 03:26:20;;;;;;;41.65;40.13;;;10.20;94.10;;;;;;5010172;28;20091;-76
2022/11/21 03:28:46;;;;;;;42.42;40.83;;;10.20;94.20;;;;;;5026701;28;20030;-76
2022/11/21 03:31:12;;;;;;;38.42;37.03;;;10.20;94.20;;;;;;5026468;28;20089;-76
2022/11/21 03:33:37;;;;;;;35.45;34.15;;;10.20;94.20;;;;;;5026567;28;20025;-76
2022/11/21 03:36:03;;;;;;;41.97;40.40;;;10.20;94.30;;;;;;5010140;28;20039;-76
2022/11/21 03:38:29;;;;;;;25.48;24.48;;;10.20;94.20;;;;;;5027699;28;20051;-76
2022/11/21 03:40:55;;;;;;;27.27;26.23;;;10.30;94.30;;;;;;5025720;28;20057;-76
2022/11/21 03:43:20;;;;;;;21.75;20.85;;;10.30;94.40;;;;;;5010026;28;20547;-76
2022/11/21 03:45:49;;;;;;;22.85;21.95;;;10.40;94.30;;;;;;5026520;28;20041;-76
2022/11/21 03:48:15;;;;;;;23.13;22.23;;;10.50;94.40;;;;;;5010214;28;20029;-76
2022/11/21 03:50:44;;;;;;;26.27;25.27;;;10.60;94.40;;;;;;5009981;28;20100;-76
2022/11/21 03:53:10;;;;;;;23.60;22.70;;;10.60;94.30;;;;;;5009768;28;20030;-76
2022/11/21 03:55:35;;;;;;;24.98;23.98;;;10.70;94.60;;;;;;5027670;28;20060;-76
2022/11/21 03:58:01;;;;;;;27.42;26.35;;;10.80;94.40;;;;;;5027587;28;20068;-76
2022/11/21 04:00:27;;;;;;;26.58;25.58;;;10.90;94.40;;;;;;5009782;28;20474;-76
2022/11/21 04:02:52;;;;;;;25.65;24.65;;;10.90;94.40;;;;;;5027516;28;20038;-76
2022/11/21 04:05:18;;;;;;;24.88;23.88;;;11.00;94.40;;;;;;5026188;28;20378;-76
2022/11/21 04:07:45;;;;;;;27.75;26.65;;;11.00;94.60;;;;;;5027425;28;20038;-76
2022/11/21 04:10:11;;;;;;;25.55;24.55;;;11.10;94.40;;;;;;5026178;28;20367;-76
2022/11/21 04:12:37;;;;;;;32.83;31.63;;;11.10;94.40;;;;;;5027451;28;20032;-76
2022/11/21 04:15:03;;;;;;;35.38;34.08;;;11.10;94.40;;;;;;5009694;28;20613;-76
2022/11/21 04:17:30;;;;;;;36.97;35.58;;;11.10;94.30;;;;;;5026026;28;20116;-76
2022/11/21 04:19:56;;;;;;;31.75;30.55;;;11.10;94.30;;;;;;5010071;28;20056;-76
2022/11/21 04:22:22;;;;;;;34.92;33.63;;;11.00;94.30;;;;;;5009748;28;20030;-76
2022/11/21 04:24:47;;;;;;;31.38;30.17;;;11.00;94.30;;;;;;5009420;28;20474;-76
2022/11/21 04:27:13;;;;;;;30.25;29.10;;;10.90;94.30;;;;;;5026053;28;20116;-77
2022/11/21 04:29:39;;;;;;;29.38;28.27;;;10.90;94.30;;;;;;4993405;28;20022;-77
2022/11/21 04:32:04;;;;;;;27.98;26.88;;;10.90;94.30;;;;;;5027292;28;20053;-77
2022/11/21 04:34:30;;;;;;;35.33;34.03;;;10.80;94.30;;;;;;5009530;28;20482;-76
2022/11/21 04:36:56;;;;;;;43.72;42.13;;;10.80;94.30;;;;;;5026073;28;20047;-77
2022/11/21 04:39:21;;;;;;;45.08;43.38;;;10.70;94.30;;;;;;5025763;28;20061;-77
2022/11/21 04:41:47;;;;;;;49.95;48.13;;;10.70;94.30;;;;;;5025833;28;20041;-76
2022/11/21 04:44:13;;;;;;;63.28;60.97;;;10.60;94.30;;;;;;5009446;28;20068;-76
2022/11/21 04:46:38;;;;;;;89.22;85.93;;;10.50;94.30;;;;;;5009488;28;20136;-76
2022/11/21 04:49:04;;;;;;;98.80;95.03;;;10.40;94.30;;;;;;5009570;28;20025;-76
2022/11/21 04:51:30;;;;;;;111.97;107.65;;;10.40;94.30;;;;;;5027683;28;20541;-76
2022/11/21 04:53:55;;;;;;;108.00;103.80;;;10.30;94.30;;;;;;5029347;28;20030;-76
2022/11/21 04:56:21;;;;;;;111.30;106.90;;;10.20;94.40;;;;;;5013022;28;20029;-76
2022/11/21 04:58:50;;;;;;;117.95;113.25;;;10.20;94.60;;;;;;5012775;28;20030;-76
2022/11/21 05:01:16;;;;;;;120.15;115.30;;;10.10;94.40;;;;;;5029369;28;20033;-76
2022/11/21 05:03:41;;;;;;;127.45;122.25;;;10.10;94.40;;;;;;5013154;28;20034;-76
2022/11/21 05:06:07;;;;;;;129.93;124.60;;;10.00;94.40;;;;;;5012587;28;20409;-76
2022/11/21 05:08:33;;;;;;;134.85;129.25;;;10.00;94.40;;;;;;5029363;28;20030;-76
2022/11/21 05:13:42;;;;;;;138.73;132.95;;;9.90;94.40;;;;;;5030643;28;20060;-75
2022/11/21 05:16:08;;;;;;;141.50;135.60;;;9.80;94.40;;;;;;5028977;28;20034;-75
2022/11/21 05:18:34;;;;;;;144.38;138.38;;;9.70;94.40;;;;;;5012662;28;20090;-76
2022/11/21 05:21:01;;;;;;;148.18;141.98;;;9.70;94.40;;;;;;5028982;28;20037;-76
2022/11/21 05:23:27;;;;;;;146.50;140.38;;;9.70;94.40;;;;;;5012530;28;20048;-76
2022/11/21 05:25:52;;;;;;;143.80;137.73;;;9.70;94.50;;;;;;5012505;28;20371;-76
2022/11/21 05:28:18;;;;;;;146.88;140.70;;;9.60;94.50;;;;;;5012384;28;20026;-75
2022/11/21 05:30:44;;;;;;;140.65;134.73;;;9.60;94.50;;;;;;5028930;28;20444;-76
2022/11/21 05:33:09;;;;;;;136.65;130.95;;;9.60;94.50;;;;;;5012270;28;20116;-75
2022/11/21 05:35:37;;;;;;;134.68;129.02;;;9.60;94.40;;;;;;5028854;28;20508;-76
2022/11/21 05:38:03;;;;;;;134.98;129.38;;;9.60;94.40;;;;;;5028730;28;20033;-75
2022/11/21 05:40:28;;;;;;;132.68;127.10;;;9.60;94.40;;;;;;5029900;28;20379;-75
2022/11/21 05:45:39;;;;;;;133.50;127.93;;;9.60;94.40;;;;;;5014849;28;20092;-76
2022/11/21 05:48:06;;;;;;;129.93;124.47;;;9.60;94.40;;;;;;5028542;28;20055;-76
2022/11/21 05:50:34;;;;;;;133.55;127.95;;;9.60;94.40;;;;;;5012209;28;20041;-73
2022/11/21 05:53:03;;;;;;;133.27;127.70;;;9.60;94.40;;;;;;5028236;28;20034;-75
2022/11/21 05:55:29;;;;;;;132.60;127.00;;;9.60;94.40;;;;;;5028230;28;20033;-75
2022/11/21 05:57:59;;;;;;;136.50;130.70;;;9.60;94.40;;;;;;5011560;28;20060;-75
2022/11/21 06:00:26;;;;;;;139.32;133.43;;;9.60;94.40;;;;;;5029628;28;20536;-75
2022/11/21 06:05:35;;;;;;;141.60;135.60;;;9.60;94.40;;;;;;5030581;28;20385;-76
2022/11/21 06:08:01;;;;;;;143.68;137.57;;;9.60;94.40;;;;;;5029834;28;20030;-76
2022/11/21 06:10:26;;;;;;;141.23;135.20;;;9.60;94.40;;;;;;4995812;28;20025;-76
2022/11/21 06:12:52;;;;;;;143.30;137.20;;;9.70;94.50;;;;;;5028195;28;20108;-75
2022/11/21 06:15:18;;;;;;;152.60;146.15;;;9.70;94.40;;;;;;5028068;28;20043;-75
2022/11/21 06:17:43;;;;;;;149.25;142.88;;;9.70;94.40;;;;;;5027846;28;20142;-76
2022/11/21 06:20:10;;;;;;;155.32;148.73;;;9.60;94.40;;;;;;5029245;28;20029;-75
2022/11/21 06:22:35;;;;;;;154.98;148.38;;;9.60;94.40;;;;;;5028006;28;20389;-76
2022/11/21 06:25:01;;;;;;;151.35;144.88;;;9.60;94.40;;;;;;5027664;28;20128;-76
2022/11/21 06:27:28;;;;;;;157.90;151.20;;;9.60;94.40;;;;;;5027740;28;20030;-75
2022/11/21 06:29:54;;;;;;;151.57;145.07;;;9.60;94.40;;;;;;5027596;28;20034;-76
2022/11/21 06:32:19;;;;;;;154.63;148.02;;;9.60;94.40;;;;;;5011098;28;20088;-75
2022/11/21 06:34:45;;;;;;;152.73;146.15;;;9.60;94.50;;;;;;5028925;28;20478;-75
2022/11/21 06:37:11;;;;;;;155.48;148.85;;;9.60;94.50;;;;;;4994606;28;20030;-76
2022/11/21 06:39:36;;;;;;;153.25;146.65;;;9.60;94.50;;;;;;5027545;28;20080;-76
2022/11/21 06:42:02;;;;;;;158.15;151.38;;;9.60;94.50;;;;;;5011137;28;20025;-76
2022/11/21 06:44:28;;;;;;;155.20;148.50;;;9.60;94.50;;;;;;5028633;28;20064;-75
2022/11/21 06:46:54;;;;;;;153.52;146.93;;;9.60;94.40;;;;;;5027206;28;20394;-75
2022/11/21 06:49:21;;;;;;;155.20;148.52;;;9.50;94.40;;;;;;5011044;28;20374;-76
2022/11/21 06:51:46;;;;;;;154.00;147.32;;;9.50;94.50;;;;;;5027505;28;20426;-75
2022/11/21 06:54:12;;;;;;;158.20;151.43;;;9.50;94.50;;;;;;5010944;28;20042;-75
2022/11/21 06:56:38;;;;;;;150.70;144.15;;;9.50;94.50;;;;;;5026964;28;20040;-75
2022/11/21 06:59:03;;;;;;;156.23;149.43;;;9.50;94.50;;;;;;5028259;28;20033;-76
2022/11/21 07:01:29;;;;;;;157.35;150.60;;;9.40;94.50;;;;;;5010471;28;20037;-75
2022/11/21 07:03:55;;;;;;;148.73;142.20;;;9.40;94.50;;;;;;5026936;28;20477;-76
2022/11/21 07:06:21;;;;;;;153.30;146.70;;;9.40;94.50;;;;;;5010240;28;20037;-75
2022/11/21 07:08:50;;;;;;;154.05;147.38;;;9.40;94.50;;;;;;5026842;28;20036;-75
2022/11/21 07:11:16;;;;;;;150.77;144.27;;;9.40;94.50;;;;;;5026806;28;20120;-76
2022/11/21 07:13:42;;;;;;;149.90;143.40;;;9.30;94.50;;;;;;5010484;28;20057;-75
2022/11/21 07:16:14;;;;;;;155.43;148.70;;;9.30;94.50;;;;;;5028219;28;20104;-75
2022/11/21 07:18:41;;;;;;;152.85;146.23;;;9.30;94.50;;;;;;5028073;28;20033;-75
2022/11/21 07:21:08;;;;;;;149.50;143.00;;;9.30;94.60;;;;;;5026680;28;20104;-75
2022/11/21 07:23:34;;;;;;;155.32;148.63;;;9.20;94.50;;;;;;5027923;28;20046;-75
2022/11/21 07:26:04;;;;;;;152.20;145.55;;;9.20;94.50;;;;;;5026708;28;20084;-75
2022/11/21 07:28:31;;;;;;;150.05;143.48;;;9.20;94.50;;;;;;5026732;28;20029;-76
2022/11/21 07:30:58;;;;;;;149.88;143.32;;;9.30;94.50;;;;;;5026845;28;20018;-81
2022/11/21 07:33:24;;;;;;;147.52;141.02;;;9.30;94.50;;;;;;5027013;28;20029;-82
2022/11/21 07:35:50;;;;;;;;;;;9.30;94.50;;;;;;5028589;28;20068;-83
2022/11/21 07:38:16;;;;;;;146.00;139.57;;;9.20;94.50;;;;;;5027796;28;20049;-82
2022/11/21 07:40:41;;;;;;;145.63;139.25;;;9.20;94.50;;;;;;5028045;28;20044;-81
2022/11/21 07:43:09;;;;;;;144.95;138.57;;;9.20;94.50;;;;;;5032878;28;20033;-81
2022/11/21 07:45:35;;;;;;;149.65;143.13;;;9.20;94.50;;;;;;5027955;28;20030;-82
2022/11/21 07:48:03;;;;;;;141.88;135.68;;;9.20;94.50;;;;;;5028262;28;20041;-81
2022/11/21 07:50:29;;;;;;;143.50;137.20;;;9.20;94.50;;;;;;5028915;28;20064;-81
2022/11/21 07:52:59;;;;;;;141.65;135.35;;;9.20;94.50;;;;;;5026663;28;20484;-82
2022/11/21 07:55:25;;;;;;;147.70;141.20;;;9.10;94.50;;;;;;5027753;28;20048;-82
2022/11/21 07:58:02;;;;;;;141.07;134.80;;;9.20;94.50;;;;;;5028527;28;20053;-81
2022/11/21 08:00:28;;;;;;;;;;;9.20;94.50;;;;;;5028196;28;20025;-81
2022/11/21 08:02:54;;;;;;;143.88;137.57;;;9.20;94.50;;;;;;5027498;28;19905;-82
2022/11/21 08:05:20;;;;;;;141.63;135.38;;;9.20;94.50;;;;;;5025962;28;20036;-82
2022/11/21 08:07:46;;;;;;;139.32;133.13;;;9.20;94.50;;;;;;5026231;28;20134;-80
2022/11/21 08:10:12;;;;;;;138.40;132.20;;;9.20;94.50;;;;;;5026429;28;20496;-81
2022/11/21 08:12:37;;;;;;;138.25;132.13;;;9.20;94.50;;;;;;5028069;28;20034;-81
2022/11/21 08:15:05;;;;;;;140.77;134.48;;;9.20;94.50;;;;;;5028520;28;20030;-80
2022/11/21 08:17:31;;;;;;;140.25;133.95;;;9.30;94.60;;;;;;5028443;28;20052;-80
2022/11/21 08:19:59;;;;;;;143.38;136.93;;;9.30;94.60;;;;;;5028210;28;20100;-81
2022/11/21 08:22:25;;;;;;;143.15;136.65;;;9.30;94.60;;;;;;5028728;28;20037;-67
2022/11/21 08:24:52;;;;;;;;;;;9.30;94.60;;;;;;5027466;28;20041;-82
2022/11/21 08:27:20;;;;;;;;;;;9.30;94.60;;;;;;5029724;28;19951;-81
2022/11/21 08:29:46;;;;;;;;;;;9.40;94.60;;;;;;5030847;28;20021;-81
2022/11/21 08:32:12;;;;;;;;;;;9.40;94.60;;;;;;5032140;28;19955;-81
2022/11/21 08:34:37;;;;;;;;;;;9.40;94.60;;;;;;5032288;28;19909;-81
2022/11/21 08:37:03;;;;;;;;;;;9.50;94.60;;;;;;5031462;28;19916;-82
2022/11/21 08:39:29;;;;;;;;;;;9.50;94.60;;;;;;5031792;28;19915;-81
2022/11/21 08:42:01;;;;;;;;;;;9.50;94.60;;;;;;5031834;28;19909;-81
2022/11/21 08:44:27;;;;;;;;;;;9.60;94.60;;;;;;5032063;28;20321;-81
2022/11/21 08:46:54;;;;;;;;;;;9.60;94.60;;;;;;5032571;28;20410;-81
2022/11/21 08:49:19;;;;;;;;;;;9.60;94.60;;;;;;5030657;28;19915;-81
2022/11/21 08:51:48;;;;;;;;;;;9.60;94.60;;;;;;5032700;28;20003;-80
2022/11/21 08:54:14;;;;;;;;;;;9.60;94.70;;;;;;5033328;28;19912;-81
2022/11/21 08:56:40;;;;;;;;;;;9.60;94.70;;;;;;5032802;28;19953;-81
2022/11/21 08:59:06;;;;;;;;;;;9.60;94.70;;;;;;5034048;28;20013;-80
2022/11/21 09:01:32;;;;;;;;;;;9.60;94.60;;;;;;5033296;28;19947;-80
2022/11/21 09:03:57;;;;;;;;;;;9.60;94.60;;;;;;5032033;28;20031;-78
2022/11/21 09:06:23;;;;;;;;;;;9.60;94.60;;;;;;5035180;28;20007;-78
2022/11/21 09:08:48;;;;;;;;;;;9.60;94.70;;;;;;5037817;28;19909;-77
2022/11/21 09:11:14;;;;;;;;;;;9.60;94.70;;;;;;5047149;28;19915;-81
2022/11/21 09:13:39;;;;;;;;;;;9.60;94.70;;;;;;5045647;28;20616;-81
2022/11/21 09:18:52;;;;;;;;;;;9.60;94.70;;;;;;5043340;28;19917;-80
2022/11/21 09:21:18;;;;;;;;;;;9.60;94.70;;;;;;5027919;28;19967;-80
2022/11/21 09:23:44;;;;;;;;;;;9.60;94.70;;;;;;5038710;28;19987;-81
2022/11/21 09:26:10;;;;;;;;;;;9.60;94.70;;;;;;5039937;28;19917;-82
2022/11/21 09:28:35;;;;;;;;;;;9.60;94.70;;;;;;5040716;28;19913;-80
2022/11/21 09:31:01;;;;;;;;;;;9.60;94.70;;;;;;5045342;28;20379;-82
2022/11/21 09:33:26;;;;;;;;;;;9.70;94.70;;;;;;5042088;28;19905;-81
2022/11/21 09:35:52;;;;;;;;;;;9.60;94.70;;;;;;5025085;28;19913;-82
2022/11/21 09:38:18;;;;;;;;;;;9.60;94.70;;;;;;5038557;28;20404;-82
2022/11/21 09:40:45;;;;;;;;;;;9.60;94.60;;;;;;5024358;28;19909;-80
2022/11/21 09:43:29;;;;;;;;;;;9.60;94.60;;;;;;5046597;28;19913;-79
2022/11/21 09:46:00;;;;;;;;;;;9.50;94.50;;;;;;5031866;28;19915;-78
2022/11/21 09:48:42;;;;;;;;;;;9.30;94.20;;;;;;5042658;28;19912;-76
2022/11/21 09:51:10;;;;;;;;;;;9.10;94.10;;;;;;5039729;28;20357;-73
2022/11/21 09:53:38;;;;;;;;;;;8.80;94.10;;;;;;5030832;28;19926;-76
2022/11/21 09:56:05;;;;;;;;;;;8.60;94.20;;;;;;5042276;28;19904;-76
2022/11/21 09:58:31;;;;;;;;;;;8.40;94.20;;;;;;5041884;28;19970;-78
2022/11/21 10:00:59;;;;;;;;;;;8.20;94.30;;;;;;5033596;28;20378;-77
2022/11/21 10:03:26;;;;;;;;;;;8.10;94.30;;;;;;5051580;28;19999;-77
2022/11/21 10:05:54;;;;;;;;;;;8.00;94.40;;;;;;5043046;28;20288;-78
2022/11/21 10:08:32;;;;;;;;;;;8.00;94.40;;;;;;5039301;28;19905;-76
2022/11/21 10:11:17;;;;;;;;;;;7.90;94.40;;;;;;5042229;28;19966;-77
2022/11/21 10:13:53;;;;;;;;;;;7.90;94.40;;;;;;5037854;28;19941;-77
2022/11/21 10:16:38;;;;;;;;;;;7.80;94.40;;;;;;5036636;28;19904;-77
2022/11/21 10:19:03;;;;;;;;;;;7.90;94.40;;;;;;5050169;28;19911;-77
2022/11/21 10:21:42;;;;;;;;;;;7.90;94.50;;;;;;5051639;28;19905;-77
2022/11/21 10:24:28;;;;;;;;;;;7.90;94.50;;;;;;5049997;28;19916;-80
2022/11/21 10:27:01;;;;;;;;;;;7.90;94.50;;;;;;5032261;28;19936;-80
2022/11/21 10:29:37;;;;;;;;;;;8.00;94.50;;;;;;5042503;28;19909;-80
2022/11/21 10:32:09;;;;;;;;;;;8.00;94.50;;;;;;5040982;28;20395;-81
2022/11/21 10:34:36;;;;;;;;;;;8.10;94.40;;;;;;5036580;28;19980;-80
2022/11/21 10:37:07;;;;;;;;;;;8.10;94.40;;;;;;5043089;28;19928;-80
2022/11/21 10:39:42;;;;;;;;;;;8.10;94.30;;;;;;5031732;28;19905;-80
2022/11/21 10:42:29;;;;;;;;;;;8.10;94.30;;;;;;5048071;28;19905;-80
2022/11/21 10:45:17;;;;;;;;;;;8.20;94.40;;;;;;5049196;28;19916;-79
2022/11/21 10:47:43;;;;;;;;;;;8.20;94.40;;;;;;5052232;28;19917;-80
2022/11/21 10:50:09;;;;;;;;;;;8.30;94.40;;;;;;5031274;28;19927;-80
2022/11/21 10:52:58;;;;;;;;;;;8.30;94.40;;;;;;5034944;28;20353;-80
2022/11/21 10:55:23;;;;;;;;;;;8.30;94.40;;;;;;5044560;28;19917;-80
2022/11/21 10:57:50;;;;;;;;;;;8.40;94.40;;;;;;5014329;28;20353;-80
2022/11/21 11:00:19;;;;;;;;;;;8.40;94.30;;;;;;5015509;28;19996;-80
2022/11/21 11:02:53;;;;;;;;;;;8.50;94.30;;;;;;5029546;28;20003;-79
2022/11/21 11:05:21;;;;;;;;;;;8.50;94.30;;;;;;5029726;28;20320;-80
2022/11/21 11:08:00;;;;;;;;;;;8.60;94.30;;;;;;5030435;28;19999;-78
2022/11/21 11:10:26;;;;;;;;;;;8.60;94.30;;;;;;5030557;28;19926;-77
2022/11/21 11:15:38;;;;;;;;;;;8.60;94.30;;;;;;5031530;28;19951;-78
2022/11/21 11:18:04;;;;;;;;;;;8.70;94.30;;;;;;5029703;28;19916;-78
2022/11/21 11:20:37;;;;;;;;;;;8.70;94.20;;;;;;5031266;28;19932;-77
2022/11/21 11:23:35;;;;;;;;;;;8.70;94.20;;;;;;5031143;28;19955;-79
2022/11/21 11:26:00;;;;;;;;;;;8.70;94.20;;;;;;5040314;28;19921;-78
2022/11/21 11:28:35;;;;;;;;;;;8.80;94.20;;;;;;5012587;28;19928;-76
2022/11/21 11:31:01;;;;;;;;;;;8.80;94.30;;;;;;5029735;28;19909;-77
2022/11/21 11:33:29;;;;;;;;;;;8.80;94.30;;;;;;5030046;28;20284;-80
2022/11/21 11:36:05;;;;;;;;;;;8.90;94.30;;;;;;5029416;28;19905;-79
2022/11/21 11:38:31;;;;;;;;;;;8.90;94.30;;;;;;5030290;28;20005;-76
2022/11/21 11:40:59;;;;;;;;;;;9.00;94.30;;;;;;5028067;28;19913;-78
2022/11/21 11:49:30;;;;;;;;;;;9.30;94.30;;;;;;5030070;28;19959;-78
2022/11/21 11:51:59;;;;;;;;;;;9.30;94.30;;;;;;5028815;28;19935;-77
2022/11/21 11:54:30;;;;;;;;;;;9.40;94.30;;;;;;5027902;28;19905;-75
2022/11/21 11:56:56;;;;;;;;;;;9.40;94.20;;;;;;5028433;28;20054;-75
2022/11/21 11:59:27;;;;;;;;;;;9.40;94.20;;;;;;5027549;28;20393;-76
2022/11/21 12:01:58;;;;;;;;;;;9.40;94.20;;;;;;5038484;28;19904;-78
2022/11/21 12:04:24;;;;;;;;;;;9.40;94.20;;;;;;5048369;28;19909;-79
2022/11/21 12:07:10;;;;;;;;;;;9.30;94.10;;;;;;5042458;28;19915;-81
2022/11/21 12:09:38;;;;;;;;;;;9.30;94.20;;;;;;5028202;28;19905;-80
2022/11/21 12:12:10;;;;;;;;;;;9.30;94.20;;;;;;5029766;28;20331;-80
2022/11/21 12:17:48;;;;;;;;;;;9.40;94.40;;;;;;5050052;28;19934;-75
2022/11/21 12:20:16;;;;;;;;;;;9.60;94.50;;;;;;5049573;28;20346;-79
2022/11/21 12:22:42;;;;;;;;;;;9.70;94.50;;;;;;5051477;28;19995;-78
2022/11/21 12:25:12;;;;;;;;;;;9.80;94.40;;;;;;5051179;28;19937;-77
2022/11/21 12:27:39;;;;;;;;;;;9.90;94.40;;;;;;5048887;28;19913;-79
2022/11/21 12:30:23;;;;;;;;;;;10.00;94.30;;;;;;5047973;28;20360;-79
2022/11/21 12:32:54;;;;;;;;;;;10.00;94.30;;;;;;5048706;28;19905;-75
2022/11/21 12:35:25;;;;;;;;;;;10.10;94.40;;;;;;5049577;28;19936;-80
2022/11/21 12:38:10;;;;;;;;;;;10.10;94.30;;;;;;5049594;28;19915;-78
2022/11/21 12:40:44;;;;;;;;;;;10.10;94.40;;;;;;5049941;28;19912;-79
2022/11/21 12:43:26;;;;;;;;;;;10.20;94.50;;;;;;5051336;28;19905;-81
2022/11/21 12:46:01;;;;;;;;;;;10.30;94.50;;;;;;5050145;28;20404;-79
2022/11/21 12:54:32;;;;;;;;;;;10.60;94.60;;;;;;5050172;28;19950;-79
2022/11/21 12:57:00;;;;;;;;;;;10.80;94.50;;;;;;5041662;28;19950;-81
2022/11/21 12:59:28;;;;;;;;;;;10.90;94.50;;;;;;5051384;28;20044;-82
2022/11/21 13:01:53;;;;;;;;;;;11.00;94.50;;;;;;5048696;28;19905;-80
2022/11/21 13:04:25;;;;;;;;;;;11.10;94.50;;;;;;5050267;28;19958;-80
2022/11/21 13:06:52;;;;;;;;;;;11.20;94.60;;;;;;5050422;28;19939;-80
2022/11/21 13:09:19;;;;;;;;;;;11.40;94.70;;;;;;5053270;28;20376;-80
2022/11/21 13:12:00;;;;;;;;;;;11.70;94.90;;;;;;5048520;28;19905;-79
2022/11/21 13:14:41;;;;;;;;;;;11.90;94.90;;;;;;5052770;28;19954;-83
2022/11/21 13:17:25;;;;;;;;;;;12.10;94.90;;;;;;5054685;28;19928;-81
2022/11/21 13:19:59;;;;;;;;;;;12.10;94.60;;;;;;5043314;28;19916;-82
2022/11/21 13:22:34;;;;;;;;;;;12.00;94.70;;;;;;5045802;28;19909;-81
2022/11/21 13:25:10;;;;;;;;;;;11.90;94.50;;;;;;5042916;28;19917;-81
2022/11/21 13:27:40;;;;;;;;;;;11.90;94.60;;;;;;5040235;28;19967;-82
2022/11/21 13:30:05;;;;;;;;;;;11.90;94.50;;;;;;5045787;28;19930;-79
2022/11/21 13:32:50;;;;;;;;;;;11.90;94.40;;;;;;5051265;28;20006;-77
2022/11/21 13:35:18;;;;;;;;;;;11.90;94.40;;;;;;5053608;28;19962;-77
2022/11/21 13:38:02;;;;;;;;;;;11.80;94.40;;;;;;5055693;28;19905;-79
2022/11/21 13:40:30;;;;;;;;;;;11.70;94.30;;;;;;5052106;28;20337;-80
2022/11/21 13:43:18;;;;;;;;;;;11.60;94.20;;;;;;5053747;28;19909;-80